sensor_id;sensor_type;location;lat;lon;timestamp;P1;durP1;ratioP1;P2;durP2;ratioP2
4533;SDS011;2279;51.448;7.306;2022-08-16T00:00:35;4.50;;;3.90;;
4533;SDS011;2279;51.448;7.306;2022-08-16T00:03:01;4.40;;;4.10;;
4533;SDS011;2279;51.448;7.306;2022-08-16T00:05:28;4.70;;;4.40;;
4533;SDS011;2279;51.448;7.306;2022-08-16T00:07:54;4.50;;;4.13;;
4533;SDS011;2279;51.448;7.306;2022-08-16T00:10:21;4.70;;;4.30;;
4533;SDS011;2279;51.448;7.306;2022-08-16T00:12:48;4.93;;;4.53;;
4533;SDS011;2279;51.448;7.306;2022-08-16T00:15:25;5.73;;;4.83;;
4533;SDS011;2279;51.448;7.306;2022-08-16T00:17:52;7.80;;;4.77;;
4533;SDS011;2279;51.448;7.306;2022-08-16T00:20:18;4.13;;;3.83;;
4533;SDS011;2279;51.448;7.306;2022-08-16T00:22:45;4.70;;;4.30;;
4533;SDS011;2279;51.448;7.306;2022-08-16T00:25:13;5.40;;;4.90;;
4533;SDS011;2279;51.448;7.306;2022-08-16T00:27:40;5.63;;;5.13;;
4533;SDS011;2279;51.448;7.306;2022-08-16T00:30:08;6.87;;;4.83;;
4533;SDS011;2279;51.448;7.306;2022-08-16T00:32:34;5.37;;;4.50;;
4533;SDS011;2279;51.448;7.306;2022-08-16T00:35:01;5.40;;;4.93;;
4533;SDS011;2279;51.448;7.306;2022-08-16T00:37:27;4.83;;;4.43;;
4533;SDS011;2279;51.448;7.306;2022-08-16T00:39:53;8.40;;;4.90;;
4533;SDS011;2279;51.448;7.306;2022-08-16T00:42:19;5.17;;;4.67;;
4533;SDS011;2279;51.448;7.306;2022-08-16T00:44:46;10.20;;;5.43;;
4533;SDS011;2279;51.448;7.306;2022-08-16T00:47:15;4.80;;;4.50;;
4533;SDS011;2279;51.448;7.306;2022-08-16T00:49:41;4.80;;;4.40;;
4533;SDS011;2279;51.448;7.306;2022-08-16T00:52:07;4.63;;;4.33;;
4533;SDS011;2279;51.448;7.306;2022-08-16T00:54:33;8.27;;;4.97;;
4533;SDS011;2279;51.448;7.306;2022-08-16T00:57:00;5.60;;;5.10;;
4533;SDS011;2279;51.448;7.306;2022-08-16T00:59:28;6.77;;;4.83;;
4533;SDS011;2279;51.448;7.306;2022-08-16T01:01:55;4.73;;;4.23;;
4533;SDS011;2279;51.448;7.306;2022-08-16T01:04:22;4.77;;;4.20;;
4533;SDS011;2279;51.448;7.306;2022-08-16T01:06:49;4.83;;;4.37;;
4533;SDS011;2279;51.448;7.306;2022-08-16T01:09:15;5.30;;;4.80;;
4533;SDS011;2279;51.448;7.306;2022-08-16T01:11:41;6.13;;;5.47;;
4533;SDS011;2279;51.448;7.306;2022-08-16T01:14:10;5.03;;;4.63;;
4533;SDS011;2279;51.448;7.306;2022-08-16T01:16:37;4.70;;;4.40;;
4533;SDS011;2279;51.448;7.306;2022-08-16T01:24:18;4.67;;;4.27;;
4533;SDS011;2279;51.448;7.306;2022-08-16T01:26:45;5.20;;;4.70;;
4533;SDS011;2279;51.448;7.306;2022-08-16T01:29:22;5.13;;;4.63;;
4533;SDS011;2279;51.448;7.306;2022-08-16T01:31:51;5.40;;;4.90;;
4533;SDS011;2279;51.448;7.306;2022-08-16T01:34:17;4.67;;;4.37;;
4533;SDS011;2279;51.448;7.306;2022-08-16T01:36:43;6.97;;;4.83;;
4533;SDS011;2279;51.448;7.306;2022-08-16T01:39:11;5.33;;;4.93;;
4533;SDS011;2279;51.448;7.306;2022-08-16T01:41:38;4.90;;;4.50;;
4533;SDS011;2279;51.448;7.306;2022-08-16T01:44:04;6.30;;;5.00;;
4533;SDS011;2279;51.448;7.306;2022-08-16T01:46:32;5.43;;;4.77;;
4533;SDS011;2279;51.448;7.306;2022-08-16T01:49:00;5.70;;;5.20;;
4533;SDS011;2279;51.448;7.306;2022-08-16T01:51:27;5.40;;;5.00;;
4533;SDS011;2279;51.448;7.306;2022-08-16T01:53:53;7.83;;;4.77;;
4533;SDS011;2279;51.448;7.306;2022-08-16T01:56:19;5.63;;;5.23;;
4533;SDS011;2279;51.448;7.306;2022-08-16T01:58:45;5.73;;;5.23;;
4533;SDS011;2279;51.448;7.306;2022-08-16T02:01:12;7.77;;;5.77;;
4533;SDS011;2279;51.448;7.306;2022-08-16T02:03:38;6.10;;;5.50;;
4533;SDS011;2279;51.448;7.306;2022-08-16T02:06:04;4.90;;;4.50;;
4533;SDS011;2279;51.448;7.306;2022-08-16T02:08:31;5.37;;;4.97;;
4533;SDS011;2279;51.448;7.306;2022-08-16T02:10:58;5.90;;;5.10;;
4533;SDS011;2279;51.448;7.306;2022-08-16T02:13:24;8.07;;;4.47;;
4533;SDS011;2279;51.448;7.306;2022-08-16T02:15:50;6.13;;;5.63;;
4533;SDS011;2279;51.448;7.306;2022-08-16T02:18:17;6.00;;;5.50;;
4533;SDS011;2279;51.448;7.306;2022-08-16T02:20:45;6.60;;;4.87;;
4533;SDS011;2279;51.448;7.306;2022-08-16T02:23:12;6.00;;;5.43;;
4533;SDS011;2279;51.448;7.306;2022-08-16T02:25:38;5.13;;;4.67;;
4533;SDS011;2279;51.448;7.306;2022-08-16T02:28:04;6.60;;;5.80;;
4533;SDS011;2279;51.448;7.306;2022-08-16T02:30:30;6.33;;;5.27;;
4533;SDS011;2279;51.448;7.306;2022-08-16T02:32:57;6.27;;;5.50;;
4533;SDS011;2279;51.448;7.306;2022-08-16T02:35:24;5.40;;;4.90;;
4533;SDS011;2279;51.448;7.306;2022-08-16T02:37:50;5.77;;;5.33;;
4533;SDS011;2279;51.448;7.306;2022-08-16T02:40:17;5.40;;;4.90;;
4533;SDS011;2279;51.448;7.306;2022-08-16T02:42:44;6.83;;;5.00;;
4533;SDS011;2279;51.448;7.306;2022-08-16T02:45:10;5.30;;;4.80;;
4533;SDS011;2279;51.448;7.306;2022-08-16T02:47:36;5.30;;;4.93;;
4533;SDS011;2279;51.448;7.306;2022-08-16T02:50:02;5.97;;;4.83;;
4533;SDS011;2279;51.448;7.306;2022-08-16T02:52:28;6.50;;;6.00;;
4533;SDS011;2279;51.448;7.306;2022-08-16T02:54:54;6.03;;;5.50;;
4533;SDS011;2279;51.448;7.306;2022-08-16T02:57:20;5.00;;;4.50;;
4533;SDS011;2279;51.448;7.306;2022-08-16T02:59:47;6.67;;;5.33;;
4533;SDS011;2279;51.448;7.306;2022-08-16T03:02:14;5.40;;;4.60;;
4533;SDS011;2279;51.448;7.306;2022-08-16T03:04:40;8.40;;;5.03;;
4533;SDS011;2279;51.448;7.306;2022-08-16T03:07:06;5.40;;;4.90;;
4533;SDS011;2279;51.448;7.306;2022-08-16T03:09:33;5.70;;;5.20;;
4533;SDS011;2279;51.448;7.306;2022-08-16T03:11:59;4.67;;;4.23;;
4533;SDS011;2279;51.448;7.306;2022-08-16T03:14:25;7.10;;;4.63;;
4533;SDS011;2279;51.448;7.306;2022-08-16T03:16:52;8.57;;;5.77;;
4533;SDS011;2279;51.448;7.306;2022-08-16T03:19:18;5.50;;;5.00;;
4533;SDS011;2279;51.448;7.306;2022-08-16T03:21:44;6.10;;;5.10;;
4533;SDS011;2279;51.448;7.306;2022-08-16T03:24:10;6.03;;;5.43;;
4533;SDS011;2279;51.448;7.306;2022-08-16T03:26:36;5.93;;;4.60;;
4533;SDS011;2279;51.448;7.306;2022-08-16T03:29:03;5.20;;;4.80;;
4533;SDS011;2279;51.448;7.306;2022-08-16T03:31:29;5.33;;;4.93;;
4533;SDS011;2279;51.448;7.306;2022-08-16T03:33:55;8.87;;;5.30;;
4533;SDS011;2279;51.448;7.306;2022-08-16T03:36:21;5.40;;;5.00;;
4533;SDS011;2279;51.448;7.306;2022-08-16T03:38:47;5.17;;;4.67;;
4533;SDS011;2279;51.448;7.306;2022-08-16T03:41:13;5.10;;;4.70;;
4533;SDS011;2279;51.448;7.306;2022-08-16T03:43:39;4.93;;;4.50;;
4533;SDS011;2279;51.448;7.306;2022-08-16T03:46:05;5.53;;;5.13;;
4533;SDS011;2279;51.448;7.306;2022-08-16T03:48:33;5.90;;;4.93;;
4533;SDS011;2279;51.448;7.306;2022-08-16T03:50:59;5.20;;;4.77;;
4533;SDS011;2279;51.448;7.306;2022-08-16T03:53:26;5.17;;;4.67;;
4533;SDS011;2279;51.448;7.306;2022-08-16T03:55:52;5.30;;;4.90;;
4533;SDS011;2279;51.448;7.306;2022-08-16T03:58:18;5.50;;;5.10;;
4533;SDS011;2279;51.448;7.306;2022-08-16T04:00:44;4.77;;;4.40;;
4533;SDS011;2279;51.448;7.306;2022-08-16T04:03:10;4.97;;;4.57;;
4533;SDS011;2279;51.448;7.306;2022-08-16T04:05:37;5.70;;;5.20;;
4533;SDS011;2279;51.448;7.306;2022-08-16T04:08:04;4.90;;;4.50;;
4533;SDS011;2279;51.448;7.306;2022-08-16T04:10:30;5.70;;;4.97;;
4533;SDS011;2279;51.448;7.306;2022-08-16T04:12:56;5.63;;;5.23;;
4533;SDS011;2279;51.448;7.306;2022-08-16T04:15:23;5.03;;;4.53;;
4533;SDS011;2279;51.448;7.306;2022-08-16T04:17:50;6.27;;;5.10;;
4533;SDS011;2279;51.448;7.306;2022-08-16T04:20:16;4.83;;;4.43;;
4533;SDS011;2279;51.448;7.306;2022-08-16T04:22:42;5.93;;;4.20;;
4533;SDS011;2279;51.448;7.306;2022-08-16T04:25:09;5.03;;;4.63;;
4533;SDS011;2279;51.448;7.306;2022-08-16T04:27:35;4.83;;;4.43;;
4533;SDS011;2279;51.448;7.306;2022-08-16T04:30:02;4.90;;;4.40;;
4533;SDS011;2279;51.448;7.306;2022-08-16T04:32:29;4.93;;;4.53;;
4533;SDS011;2279;51.448;7.306;2022-08-16T04:34:56;5.40;;;5.00;;
4533;SDS011;2279;51.448;7.306;2022-08-16T04:37:22;5.07;;;4.70;;
4533;SDS011;2279;51.448;7.306;2022-08-16T04:39:48;5.70;;;5.20;;
4533;SDS011;2279;51.448;7.306;2022-08-16T04:42:14;5.13;;;4.60;;
4533;SDS011;2279;51.448;7.306;2022-08-16T04:44:41;5.20;;;4.80;;
4533;SDS011;2279;51.448;7.306;2022-08-16T04:47:07;4.93;;;4.23;;
4533;SDS011;2279;51.448;7.306;2022-08-16T04:49:33;5.90;;;5.40;;
4533;SDS011;2279;51.448;7.306;2022-08-16T04:52:00;5.67;;;4.80;;
4533;SDS011;2279;51.448;7.306;2022-08-16T04:54:26;5.97;;;4.70;;
4533;SDS011;2279;51.448;7.306;2022-08-16T04:56:52;5.47;;;4.73;;
4533;SDS011;2279;51.448;7.306;2022-08-16T04:59:18;4.83;;;4.43;;
4533;SDS011;2279;51.448;7.306;2022-08-16T05:01:44;5.33;;;4.80;;
4533;SDS011;2279;51.448;7.306;2022-08-16T05:04:10;5.80;;;5.30;;
4533;SDS011;2279;51.448;7.306;2022-08-16T05:06:35;6.73;;;4.80;;
4533;SDS011;2279;51.448;7.306;2022-08-16T05:09:02;5.60;;;5.13;;
4533;SDS011;2279;51.448;7.306;2022-08-16T05:11:28;7.40;;;6.10;;
4533;SDS011;2279;51.448;7.306;2022-08-16T05:13:54;6.00;;;5.27;;
4533;SDS011;2279;51.448;7.306;2022-08-16T05:16:22;7.70;;;6.90;;
4533;SDS011;2279;51.448;7.306;2022-08-16T05:18:49;10.33;;;5.40;;
4533;SDS011;2279;51.448;7.306;2022-08-16T05:21:16;5.20;;;4.80;;
4533;SDS011;2279;51.448;7.306;2022-08-16T05:23:42;8.70;;;4.37;;
4533;SDS011;2279;51.448;7.306;2022-08-16T05:26:08;4.87;;;4.37;;
4533;SDS011;2279;51.448;7.306;2022-08-16T05:28:34;4.57;;;4.07;;
4533;SDS011;2279;51.448;7.306;2022-08-16T05:31:00;4.70;;;4.30;;
4533;SDS011;2279;51.448;7.306;2022-08-16T05:33:26;4.87;;;4.47;;
4533;SDS011;2279;51.448;7.306;2022-08-16T05:35:52;4.87;;;4.53;;
4533;SDS011;2279;51.448;7.306;2022-08-16T05:38:18;5.47;;;4.97;;
4533;SDS011;2279;51.448;7.306;2022-08-16T05:40:44;5.20;;;4.70;;
4533;SDS011;2279;51.448;7.306;2022-08-16T05:43:10;7.07;;;4.50;;
4533;SDS011;2279;51.448;7.306;2022-08-16T05:45:36;5.10;;;4.60;;
4533;SDS011;2279;51.448;7.306;2022-08-16T05:48:02;5.30;;;4.90;;
4533;SDS011;2279;51.448;7.306;2022-08-16T05:50:29;4.73;;;4.37;;
4533;SDS011;2279;51.448;7.306;2022-08-16T05:52:55;7.00;;;4.50;;
4533;SDS011;2279;51.448;7.306;2022-08-16T05:55:21;5.47;;;4.77;;
4533;SDS011;2279;51.448;7.306;2022-08-16T05:57:47;9.60;;;4.67;;
4533;SDS011;2279;51.448;7.306;2022-08-16T06:00:13;4.80;;;4.50;;
4533;SDS011;2279;51.448;7.306;2022-08-16T06:02:39;4.50;;;4.17;;
4533;SDS011;2279;51.448;7.306;2022-08-16T06:05:06;8.33;;;5.77;;
4533;SDS011;2279;51.448;7.306;2022-08-16T06:07:32;5.23;;;4.73;;
4533;SDS011;2279;51.448;7.306;2022-08-16T06:09:58;6.00;;;4.80;;
4533;SDS011;2279;51.448;7.306;2022-08-16T06:12:24;5.27;;;4.50;;
4533;SDS011;2279;51.448;7.306;2022-08-16T06:14:50;4.80;;;4.40;;
4533;SDS011;2279;51.448;7.306;2022-08-16T06:17:16;5.57;;;5.17;;
4533;SDS011;2279;51.448;7.306;2022-08-16T06:19:43;4.57;;;4.27;;
4533;SDS011;2279;51.448;7.306;2022-08-16T06:22:09;4.43;;;4.13;;
4533;SDS011;2279;51.448;7.306;2022-08-16T06:24:35;5.07;;;4.67;;
4533;SDS011;2279;51.448;7.306;2022-08-16T06:27:01;5.27;;;4.87;;
4533;SDS011;2279;51.448;7.306;2022-08-16T06:29:28;4.67;;;4.33;;
4533;SDS011;2279;51.448;7.306;2022-08-16T06:31:54;8.67;;;5.17;;
4533;SDS011;2279;51.448;7.306;2022-08-16T06:34:19;7.23;;;5.03;;
4533;SDS011;2279;51.448;7.306;2022-08-16T06:36:46;5.30;;;4.77;;
4533;SDS011;2279;51.448;7.306;2022-08-16T06:39:12;5.10;;;4.60;;
4533;SDS011;2279;51.448;7.306;2022-08-16T06:41:38;5.30;;;4.87;;
4533;SDS011;2279;51.448;7.306;2022-08-16T06:44:04;4.47;;;4.10;;
4533;SDS011;2279;51.448;7.306;2022-08-16T06:46:33;7.00;;;4.90;;
4533;SDS011;2279;51.448;7.306;2022-08-16T06:49:00;4.90;;;4.33;;
4533;SDS011;2279;51.448;7.306;2022-08-16T06:51:27;6.23;;;5.37;;
4533;SDS011;2279;51.448;7.306;2022-08-16T06:53:53;5.60;;;5.00;;
4533;SDS011;2279;51.448;7.306;2022-08-16T06:56:19;5.47;;;4.97;;
4533;SDS011;2279;51.448;7.306;2022-08-16T06:58:45;7.00;;;5.00;;
4533;SDS011;2279;51.448;7.306;2022-08-16T07:01:15;4.50;;;4.20;;
4533;SDS011;2279;51.448;7.306;2022-08-16T07:03:41;4.77;;;4.47;;
4533;SDS011;2279;51.448;7.306;2022-08-16T07:06:07;10.83;;;5.17;;
4533;SDS011;2279;51.448;7.306;2022-08-16T07:08:33;4.77;;;4.40;;
4533;SDS011;2279;51.448;7.306;2022-08-16T07:10:59;10.13;;;5.43;;
4533;SDS011;2279;51.448;7.306;2022-08-16T07:13:25;5.30;;;4.80;;
4533;SDS011;2279;51.448;7.306;2022-08-16T07:15:51;9.13;;;4.23;;
4533;SDS011;2279;51.448;7.306;2022-08-16T07:18:17;5.30;;;4.90;;
4533;SDS011;2279;51.448;7.306;2022-08-16T07:20:44;7.70;;;5.30;;
4533;SDS011;2279;51.448;7.306;2022-08-16T07:23:11;8.67;;;4.73;;
4533;SDS011;2279;51.448;7.306;2022-08-16T07:25:37;5.40;;;5.00;;
4533;SDS011;2279;51.448;7.306;2022-08-16T07:28:03;6.83;;;3.60;;
4533;SDS011;2279;51.448;7.306;2022-08-16T07:30:29;6.43;;;4.37;;
4533;SDS011;2279;51.448;7.306;2022-08-16T07:32:56;6.47;;;5.87;;
4533;SDS011;2279;51.448;7.306;2022-08-16T07:35:22;7.23;;;5.40;;
4533;SDS011;2279;51.448;7.306;2022-08-16T07:37:48;7.90;;;5.20;;
4533;SDS011;2279;51.448;7.306;2022-08-16T07:40:14;5.97;;;4.70;;
4533;SDS011;2279;51.448;7.306;2022-08-16T07:42:40;7.73;;;5.53;;
4533;SDS011;2279;51.448;7.306;2022-08-16T07:45:06;5.90;;;4.73;;
4533;SDS011;2279;51.448;7.306;2022-08-16T07:47:33;8.63;;;4.00;;
4533;SDS011;2279;51.448;7.306;2022-08-16T07:49:59;6.47;;;4.57;;
4533;SDS011;2279;51.448;7.306;2022-08-16T07:52:26;4.67;;;4.00;;
4533;SDS011;2279;51.448;7.306;2022-08-16T07:54:52;6.60;;;3.60;;
4533;SDS011;2279;51.448;7.306;2022-08-16T07:57:18;6.80;;;4.07;;
4533;SDS011;2279;51.448;7.306;2022-08-16T07:59:44;7.93;;;3.73;;
4533;SDS011;2279;51.448;7.306;2022-08-16T08:02:11;5.13;;;3.80;;
4533;SDS011;2279;51.448;7.306;2022-08-16T08:04:38;3.93;;;3.60;;
4533;SDS011;2279;51.448;7.306;2022-08-16T08:07:04;3.77;;;3.47;;
4533;SDS011;2279;51.448;7.306;2022-08-16T08:09:30;4.13;;;3.73;;
4533;SDS011;2279;51.448;7.306;2022-08-16T08:11:56;4.10;;;3.80;;
4533;SDS011;2279;51.448;7.306;2022-08-16T08:14:22;4.23;;;3.87;;
4533;SDS011;2279;51.448;7.306;2022-08-16T08:16:48;5.27;;;3.80;;
4533;SDS011;2279;51.448;7.306;2022-08-16T08:19:15;5.20;;;3.83;;
4533;SDS011;2279;51.448;7.306;2022-08-16T08:21:41;3.87;;;3.57;;
4533;SDS011;2279;51.448;7.306;2022-08-16T08:24:08;4.43;;;4.03;;
4533;SDS011;2279;51.448;7.306;2022-08-16T08:26:34;4.00;;;3.70;;
4533;SDS011;2279;51.448;7.306;2022-08-16T08:29:01;5.70;;;3.70;;
4533;SDS011;2279;51.448;7.306;2022-08-16T08:31:27;4.43;;;4.03;;
4533;SDS011;2279;51.448;7.306;2022-08-16T08:33:53;6.00;;;4.20;;
4533;SDS011;2279;51.448;7.306;2022-08-16T08:36:28;5.50;;;3.30;;
4533;SDS011;2279;51.448;7.306;2022-08-16T08:38:54;7.27;;;4.70;;
4533;SDS011;2279;51.448;7.306;2022-08-16T08:41:20;8.50;;;3.70;;
4533;SDS011;2279;51.448;7.306;2022-08-16T08:43:48;4.90;;;4.10;;
4533;SDS011;2279;51.448;7.306;2022-08-16T08:46:14;4.93;;;3.70;;
4533;SDS011;2279;51.448;7.306;2022-08-16T08:48:40;4.03;;;3.83;;
4533;SDS011;2279;51.448;7.306;2022-08-16T08:51:06;3.80;;;3.50;;
4533;SDS011;2279;51.448;7.306;2022-08-16T08:53:32;3.40;;;3.20;;
4533;SDS011;2279;51.448;7.306;2022-08-16T08:56:00;4.63;;;4.23;;
4533;SDS011;2279;51.448;7.306;2022-08-16T08:58:26;8.97;;;3.40;;
4533;SDS011;2279;51.448;7.306;2022-08-16T09:00:52;8.17;;;4.30;;
4533;SDS011;2279;51.448;7.306;2022-08-16T09:03:18;5.40;;;4.17;;
4533;SDS011;2279;51.448;7.306;2022-08-16T09:05:44;5.10;;;3.83;;
4533;SDS011;2279;51.448;7.306;2022-08-16T09:08:10;4.83;;;4.37;;
4533;SDS011;2279;51.448;7.306;2022-08-16T09:10:36;6.13;;;4.47;;
4533;SDS011;2279;51.448;7.306;2022-08-16T09:13:02;4.57;;;4.13;;
4533;SDS011;2279;51.448;7.306;2022-08-16T09:15:29;5.53;;;3.63;;
4533;SDS011;2279;51.448;7.306;2022-08-16T09:17:55;5.33;;;4.53;;
4533;SDS011;2279;51.448;7.306;2022-08-16T09:20:24;3.60;;;3.30;;
4533;SDS011;2279;51.448;7.306;2022-08-16T09:22:51;7.27;;;4.23;;
4533;SDS011;2279;51.448;7.306;2022-08-16T09:25:17;4.30;;;3.97;;
4533;SDS011;2279;51.448;7.306;2022-08-16T09:27:43;8.60;;;3.87;;
4533;SDS011;2279;51.448;7.306;2022-08-16T09:30:09;9.00;;;3.97;;
4533;SDS011;2279;51.448;7.306;2022-08-16T09:32:35;3.63;;;3.27;;
4533;SDS011;2279;51.448;7.306;2022-08-16T09:35:02;5.07;;;3.80;;
4533;SDS011;2279;51.448;7.306;2022-08-16T09:37:29;4.87;;;4.20;;
4533;SDS011;2279;51.448;7.306;2022-08-16T09:39:56;4.20;;;3.90;;
4533;SDS011;2279;51.448;7.306;2022-08-16T09:42:22;4.93;;;4.50;;
4533;SDS011;2279;51.448;7.306;2022-08-16T09:44:48;4.03;;;3.73;;
4533;SDS011;2279;51.448;7.306;2022-08-16T09:47:14;5.73;;;4.30;;
4533;SDS011;2279;51.448;7.306;2022-08-16T09:49:40;4.83;;;4.50;;
4533;SDS011;2279;51.448;7.306;2022-08-16T09:52:10;3.70;;;3.50;;
4533;SDS011;2279;51.448;7.306;2022-08-16T09:54:36;4.37;;;4.03;;
4533;SDS011;2279;51.448;7.306;2022-08-16T09:57:02;4.30;;;3.97;;
4533;SDS011;2279;51.448;7.306;2022-08-16T09:59:29;4.03;;;3.73;;
4533;SDS011;2279;51.448;7.306;2022-08-16T10:01:55;4.60;;;4.20;;
4533;SDS011;2279;51.448;7.306;2022-08-16T10:04:22;4.23;;;3.83;;
4533;SDS011;2279;51.448;7.306;2022-08-16T10:06:51;4.20;;;3.80;;
4533;SDS011;2279;51.448;7.306;2022-08-16T10:09:17;5.63;;;4.27;;
4533;SDS011;2279;51.448;7.306;2022-08-16T10:11:43;5.10;;;4.00;;
4533;SDS011;2279;51.448;7.306;2022-08-16T10:14:28;4.87;;;4.33;;
4533;SDS011;2279;51.448;7.306;2022-08-16T10:16:58;5.50;;;3.57;;
4533;SDS011;2279;51.448;7.306;2022-08-16T10:19:24;3.87;;;3.67;;
4533;SDS011;2279;51.448;7.306;2022-08-16T10:21:50;6.07;;;3.77;;
4533;SDS011;2279;51.448;7.306;2022-08-16T10:24:17;6.13;;;3.77;;
4533;SDS011;2279;51.448;7.306;2022-08-16T10:26:43;3.90;;;3.60;;
4533;SDS011;2279;51.448;7.306;2022-08-16T10:29:10;3.93;;;3.60;;
4533;SDS011;2279;51.448;7.306;2022-08-16T10:31:36;4.30;;;3.90;;
4533;SDS011;2279;51.448;7.306;2022-08-16T10:34:02;5.70;;;3.53;;
4533;SDS011;2279;51.448;7.306;2022-08-16T10:36:28;4.50;;;4.10;;
4533;SDS011;2279;51.448;7.306;2022-08-16T10:38:54;4.40;;;3.60;;
4533;SDS011;2279;51.448;7.306;2022-08-16T10:41:20;4.33;;;3.80;;
4533;SDS011;2279;51.448;7.306;2022-08-16T10:43:46;3.20;;;3.00;;
4533;SDS011;2279;51.448;7.306;2022-08-16T10:46:15;4.90;;;3.57;;
4533;SDS011;2279;51.448;7.306;2022-08-16T10:48:42;5.97;;;3.33;;
4533;SDS011;2279;51.448;7.306;2022-08-16T10:51:09;6.03;;;3.70;;
4533;SDS011;2279;51.448;7.306;2022-08-16T10:53:35;10.53;;;3.37;;
4533;SDS011;2279;51.448;7.306;2022-08-16T10:56:03;3.87;;;3.10;;
4533;SDS011;2279;51.448;7.306;2022-08-16T10:58:29;13.47;;;3.50;;
4533;SDS011;2279;51.448;7.306;2022-08-16T11:00:55;3.20;;;2.90;;
4533;SDS011;2279;51.448;7.306;2022-08-16T11:03:22;3.27;;;2.97;;
4533;SDS011;2279;51.448;7.306;2022-08-16T11:05:48;6.00;;;3.47;;
4533;SDS011;2279;51.448;7.306;2022-08-16T11:08:14;4.20;;;3.80;;
4533;SDS011;2279;51.448;7.306;2022-08-16T11:10:43;4.03;;;3.63;;
4533;SDS011;2279;51.448;7.306;2022-08-16T11:13:10;4.50;;;4.00;;
4533;SDS011;2279;51.448;7.306;2022-08-16T11:15:37;3.47;;;2.77;;
4533;SDS011;2279;51.448;7.306;2022-08-16T11:18:03;4.20;;;2.97;;
4533;SDS011;2279;51.448;7.306;2022-08-16T11:20:31;5.50;;;3.37;;
4533;SDS011;2279;51.448;7.306;2022-08-16T11:22:57;3.37;;;3.03;;
4533;SDS011;2279;51.448;7.306;2022-08-16T11:25:25;3.43;;;3.13;;
4533;SDS011;2279;51.448;7.306;2022-08-16T11:27:52;2.80;;;2.60;;
4533;SDS011;2279;51.448;7.306;2022-08-16T11:30:18;4.27;;;3.30;;
4533;SDS011;2279;51.448;7.306;2022-08-16T11:32:44;4.20;;;3.80;;
4533;SDS011;2279;51.448;7.306;2022-08-16T11:35:12;3.90;;;3.50;;
4533;SDS011;2279;51.448;7.306;2022-08-16T11:37:39;3.27;;;3.00;;
4533;SDS011;2279;51.448;7.306;2022-08-16T11:40:05;4.50;;;3.20;;
4533;SDS011;2279;51.448;7.306;2022-08-16T11:42:32;5.10;;;3.83;;
4533;SDS011;2279;51.448;7.306;2022-08-16T11:44:58;3.40;;;3.10;;
4533;SDS011;2279;51.448;7.306;2022-08-16T11:47:24;3.60;;;3.40;;
4533;SDS011;2279;51.448;7.306;2022-08-16T11:49:50;6.50;;;3.40;;
4533;SDS011;2279;51.448;7.306;2022-08-16T11:52:16;3.50;;;3.20;;
4533;SDS011;2279;51.448;7.306;2022-08-16T11:54:44;10.30;;;3.40;;
4533;SDS011;2279;51.448;7.306;2022-08-16T11:57:10;3.37;;;3.07;;
4533;SDS011;2279;51.448;7.306;2022-08-16T11:59:38;3.70;;;2.90;;
4533;SDS011;2279;51.448;7.306;2022-08-16T12:02:04;5.47;;;3.40;;
4533;SDS011;2279;51.448;7.306;2022-08-16T12:04:31;3.57;;;3.27;;
4533;SDS011;2279;51.448;7.306;2022-08-16T12:06:58;4.13;;;3.20;;
4533;SDS011;2279;51.448;7.306;2022-08-16T12:09:24;3.30;;;3.00;;
4533;SDS011;2279;51.448;7.306;2022-08-16T12:11:50;4.27;;;3.53;;
4533;SDS011;2279;51.448;7.306;2022-08-16T12:14:16;3.13;;;2.60;;
4533;SDS011;2279;51.448;7.306;2022-08-16T12:16:42;3.87;;;3.03;;
4533;SDS011;2279;51.448;7.306;2022-08-16T12:19:08;4.03;;;3.20;;
4533;SDS011;2279;51.448;7.306;2022-08-16T12:21:34;7.80;;;3.23;;
4533;SDS011;2279;51.448;7.306;2022-08-16T12:24:00;4.60;;;2.83;;
4533;SDS011;2279;51.448;7.306;2022-08-16T12:26:26;4.80;;;3.23;;
4533;SDS011;2279;51.448;7.306;2022-08-16T12:28:52;5.37;;;3.27;;
4533;SDS011;2279;51.448;7.306;2022-08-16T12:31:19;3.17;;;2.80;;
4533;SDS011;2279;51.448;7.306;2022-08-16T12:33:46;2.80;;;2.60;;
4533;SDS011;2279;51.448;7.306;2022-08-16T12:36:13;5.27;;;3.27;;
4533;SDS011;2279;51.448;7.306;2022-08-16T12:38:41;3.13;;;2.67;;
4533;SDS011;2279;51.448;7.306;2022-08-16T12:41:08;3.63;;;2.97;;
4533;SDS011;2279;51.448;7.306;2022-08-16T12:43:34;3.17;;;2.80;;
4533;SDS011;2279;51.448;7.306;2022-08-16T12:46:00;3.97;;;3.10;;
4533;SDS011;2279;51.448;7.306;2022-08-16T12:48:29;6.20;;;3.60;;
4533;SDS011;2279;51.448;7.306;2022-08-16T12:51:15;4.73;;;3.20;;
4533;SDS011;2279;51.448;7.306;2022-08-16T12:53:42;10.63;;;3.57;;
4533;SDS011;2279;51.448;7.306;2022-08-16T12:56:09;4.70;;;3.27;;
4533;SDS011;2279;51.448;7.306;2022-08-16T12:58:36;4.13;;;3.07;;
4533;SDS011;2279;51.448;7.306;2022-08-16T13:01:02;4.90;;;2.93;;
4533;SDS011;2279;51.448;7.306;2022-08-16T13:03:28;3.77;;;3.00;;
4533;SDS011;2279;51.448;7.306;2022-08-16T13:05:54;4.53;;;3.20;;
4533;SDS011;2279;51.448;7.306;2022-08-16T13:08:20;4.43;;;3.30;;
4533;SDS011;2279;51.448;7.306;2022-08-16T13:10:47;3.83;;;3.53;;
4533;SDS011;2279;51.448;7.306;2022-08-16T13:13:14;3.30;;;3.10;;
4533;SDS011;2279;51.448;7.306;2022-08-16T13:15:48;5.27;;;4.00;;
4533;SDS011;2279;51.448;7.306;2022-08-16T13:18:14;4.07;;;3.67;;
4533;SDS011;2279;51.448;7.306;2022-08-16T13:20:40;4.07;;;3.77;;
4533;SDS011;2279;51.448;7.306;2022-08-16T13:23:07;4.17;;;3.03;;
4533;SDS011;2279;51.448;7.306;2022-08-16T13:25:36;3.90;;;3.40;;
4533;SDS011;2279;51.448;7.306;2022-08-16T13:28:02;4.20;;;3.80;;
4533;SDS011;2279;51.448;7.306;2022-08-16T13:30:31;6.53;;;3.50;;
4533;SDS011;2279;51.448;7.306;2022-08-16T13:32:57;3.97;;;3.57;;
4533;SDS011;2279;51.448;7.306;2022-08-16T13:35:23;5.67;;;3.53;;
4533;SDS011;2279;51.448;7.306;2022-08-16T13:37:49;4.00;;;3.70;;
4533;SDS011;2279;51.448;7.306;2022-08-16T13:40:15;3.70;;;3.40;;
4533;SDS011;2279;51.448;7.306;2022-08-16T13:42:42;3.90;;;3.60;;
4533;SDS011;2279;51.448;7.306;2022-08-16T13:45:08;5.10;;;3.83;;
4533;SDS011;2279;51.448;7.306;2022-08-16T13:47:34;4.27;;;3.80;;
4533;SDS011;2279;51.448;7.306;2022-08-16T13:50:01;5.17;;;3.67;;
4533;SDS011;2279;51.448;7.306;2022-08-16T13:52:27;4.03;;;3.60;;
4533;SDS011;2279;51.448;7.306;2022-08-16T13:54:53;4.07;;;3.67;;
4533;SDS011;2279;51.448;7.306;2022-08-16T13:57:19;5.90;;;3.73;;
4533;SDS011;2279;51.448;7.306;2022-08-16T13:59:45;6.60;;;3.47;;
4533;SDS011;2279;51.448;7.306;2022-08-16T14:02:11;3.43;;;3.20;;
4533;SDS011;2279;51.448;7.306;2022-08-16T14:04:38;3.20;;;3.00;;
4533;SDS011;2279;51.448;7.306;2022-08-16T14:07:05;6.17;;;3.17;;
4533;SDS011;2279;51.448;7.306;2022-08-16T14:09:33;5.93;;;3.20;;
4533;SDS011;2279;51.448;7.306;2022-08-16T14:12:00;3.97;;;3.23;;
4533;SDS011;2279;51.448;7.306;2022-08-16T14:14:27;3.47;;;3.20;;
4533;SDS011;2279;51.448;7.306;2022-08-16T14:16:54;4.00;;;3.13;;
4533;SDS011;2279;51.448;7.306;2022-08-16T14:19:20;4.60;;;3.50;;
4533;SDS011;2279;51.448;7.306;2022-08-16T14:21:46;4.90;;;3.60;;
4533;SDS011;2279;51.448;7.306;2022-08-16T14:24:12;5.57;;;3.43;;
4533;SDS011;2279;51.448;7.306;2022-08-16T14:26:41;4.67;;;3.40;;
4533;SDS011;2279;51.448;7.306;2022-08-16T14:29:08;5.13;;;3.50;;
4533;SDS011;2279;51.448;7.306;2022-08-16T14:31:35;5.87;;;4.80;;
4533;SDS011;2279;51.448;7.306;2022-08-16T14:34:01;3.83;;;3.53;;
4533;SDS011;2279;51.448;7.306;2022-08-16T14:36:28;3.83;;;3.43;;
4533;SDS011;2279;51.448;7.306;2022-08-16T14:38:54;7.10;;;4.43;;
4533;SDS011;2279;51.448;7.306;2022-08-16T14:41:20;8.73;;;4.40;;
4533;SDS011;2279;51.448;7.306;2022-08-16T14:43:46;3.83;;;3.53;;
4533;SDS011;2279;51.448;7.306;2022-08-16T14:46:12;4.30;;;3.90;;
4533;SDS011;2279;51.448;7.306;2022-08-16T14:48:38;4.63;;;4.10;;
4533;SDS011;2279;51.448;7.306;2022-08-16T14:51:04;6.93;;;3.70;;
4533;SDS011;2279;51.448;7.306;2022-08-16T14:53:30;3.07;;;2.87;;
4533;SDS011;2279;51.448;7.306;2022-08-16T14:55:57;3.83;;;3.53;;
4533;SDS011;2279;51.448;7.306;2022-08-16T14:58:23;5.10;;;3.80;;
4533;SDS011;2279;51.448;7.306;2022-08-16T15:00:49;4.60;;;3.83;;
4533;SDS011;2279;51.448;7.306;2022-08-16T15:03:16;4.40;;;3.90;;
4533;SDS011;2279;51.448;7.306;2022-08-16T15:05:42;5.80;;;3.60;;
4533;SDS011;2279;51.448;7.306;2022-08-16T15:08:09;4.27;;;3.50;;
4533;SDS011;2279;51.448;7.306;2022-08-16T15:10:35;4.00;;;3.60;;
4533;SDS011;2279;51.448;7.306;2022-08-16T15:13:03;5.77;;;3.77;;
4533;SDS011;2279;51.448;7.306;2022-08-16T15:15:29;4.70;;;4.30;;